sensor_id;sensor_type;location;lat;lon;timestamp;pressure;altitude;pressure_sealevel;temperature;humidity
63808;BME280;49961;43.970;22.868;2023-06-26T00:00:20;101070.44;;;21.92;100.00
63808;BME280;49961;43.970;22.868;2023-06-26T00:01:20;101073.78;;;21.90;100.00
63808;BME280;49961;43.970;22.868;2023-06-26T00:02:21;101063.66;;;21.78;100.00
63808;BME280;49961;43.970;22.868;2023-06-26T00:03:21;101079.91;;;21.89;100.00
63808;BME280;49961;43.970;22.868;2023-06-26T00:04:23;101079.91;;;21.89;100.00
63808;BME280;49961;43.970;22.868;2023-06-26T00:05:23;101081.97;;;21.88;100.00
63808;BME280;49961;43.970;22.868;2023-06-26T00:06:25;101078.09;;;21.86;100.00
63808;BME280;49961;43.970;22.868;2023-06-26T00:07:26;101077.81;;;21.84;100.00
63808;BME280;49961;43.970;22.868;2023-06-26T00:08:27;101071.13;;;21.81;100.00
63808;BME280;49961;43.970;22.868;2023-06-26T00:09:28;101077.03;;;21.83;100.00
63808;BME280;49961;43.970;22.868;2023-06-26T00:10:29;101067.81;;;21.83;100.00
63808;BME280;49961;43.970;22.868;2023-06-26T00:11:29;101073.44;;;21.83;100.00
63808;BME280;49961;43.970;22.868;2023-06-26T00:12:33;101080.34;;;21.82;100.00
63808;BME280;49961;43.970;22.868;2023-06-26T00:13:33;101077.31;;;21.85;100.00
63808;BME280;49961;43.970;22.868;2023-06-26T00:14:34;101014.09;;;21.46;100.00
63808;BME280;49961;43.970;22.868;2023-06-26T00:15:34;101072.69;;;21.82;100.00
63808;BME280;49961;43.970;22.868;2023-06-26T00:16:35;101073.44;;;21.83;100.00
63808;BME280;49961;43.970;22.868;2023-06-26T00:17:37;101063.16;;;21.80;100.00
63808;BME280;49961;43.970;22.868;2023-06-26T00:18:38;101071.66;;;21.85;100.00
63808;BME280;49961;43.970;22.868;2023-06-26T00:19:38;101065.53;;;21.87;100.00
63808;BME280;49961;43.970;22.868;2023-06-26T00:20:39;101067.81;;;21.83;100.00
63808;BME280;49961;43.970;22.868;2023-06-26T00:21:39;101065.47;;;21.81;100.00
63808;BME280;49961;43.970;22.868;2023-06-26T00:22:39;101064.25;;;21.88;100.00
63808;BME280;49961;43.970;22.868;2023-06-26T00:23:43;101052.13;;;21.76;100.00
63808;BME280;49961;43.970;22.868;2023-06-26T00:24:43;101060.38;;;21.85;100.00
63808;BME280;49961;43.970;22.868;2023-06-26T00:25:45;100913.59;;;20.92;100.00
63808;BME280;49961;43.970;22.868;2023-06-26T00:26:46;101062.72;;;21.87;100.00
63808;BME280;49961;43.970;22.868;2023-06-26T00:27:47;101062.47;;;21.90;100.00
63808;BME280;49961;43.970;22.868;2023-06-26T00:28:47;101062.97;;;21.89;100.00
63808;BME280;49961;43.970;22.868;2023-06-26T00:29:48;101058.84;;;21.84;100.00
63808;BME280;49961;43.970;22.868;2023-06-26T00:30:48;101021.94;;;21.62;100.00
63808;BME280;49961;43.970;22.868;2023-06-26T00:31:49;101050.59;;;21.81;100.00
63808;BME280;49961;43.970;22.868;2023-06-26T00:32:49;101043.19;;;21.83;100.00
63808;BME280;49961;43.970;22.868;2023-06-26T00:33:49;101058.34;;;21.86;100.00
63808;BME280;49961;43.970;22.868;2023-06-26T00:34:50;101062.44;;;21.85;100.00
63808;BME280;49961;43.970;22.868;2023-06-26T00:35:50;101048.50;;;21.76;100.00
63808;BME280;49961;43.970;22.868;2023-06-26T00:36:51;101060.84;;;21.78;100.00
63808;BME280;49961;43.970;22.868;2023-06-26T00:37:51;101055.44;;;21.75;100.00
63808;BME280;49961;43.970;22.868;2023-06-26T00:38:52;101061.56;;;21.73;100.00
63808;BME280;49961;43.970;22.868;2023-06-26T00:39:53;101070.81;;;21.74;100.00
63808;BME280;49961;43.970;22.868;2023-06-26T00:40:53;100969.91;;;21.12;100.00
63808;BME280;49961;43.970;22.868;2023-06-26T00:41:55;101066.41;;;21.73;100.00
63808;BME280;49961;43.970;22.868;2023-06-26T00:42:55;101037.91;;;21.45;100.00
63808;BME280;49961;43.970;22.868;2023-06-26T00:43:56;101068.19;;;21.70;100.00
63808;BME280;49961;43.970;22.868;2023-06-26T00:44:56;101073.06;;;21.70;100.00
63808;BME280;49961;43.970;22.868;2023-06-26T00:45:56;101073.06;;;21.70;100.00
63808;BME280;49961;43.970;22.868;2023-06-26T00:46:57;101068.38;;;21.67;100.00
63808;BME280;49961;43.970;22.868;2023-06-26T00:47:57;101070.75;;;21.68;100.00
63808;BME280;49961;43.970;22.868;2023-06-26T00:49:00;101071.22;;;21.67;100.00
63808;BME280;49961;43.970;22.868;2023-06-26T00:50:02;101026.03;;;21.36;100.00
63808;BME280;49961;43.970;22.868;2023-06-26T00:51:03;101076.84;;;21.67;100.00
63808;BME280;49961;43.970;22.868;2023-06-26T00:52:04;101039.25;;;21.50;100.00
63808;BME280;49961;43.970;22.868;2023-06-26T00:53:04;101071.22;;;21.67;100.00
63808;BME280;49961;43.970;22.868;2023-06-26T00:54:05;101072.00;;;21.67;100.00
63808;BME280;49961;43.970;22.868;2023-06-26T00:55:07;101073.28;;;21.66;100.00
63808;BME280;49961;43.970;22.868;2023-06-26T00:56:07;101069.94;;;21.68;100.00
63808;BME280;49961;43.970;22.868;2023-06-26T00:57:08;101018.34;;;21.36;100.00
63808;BME280;49961;43.970;22.868;2023-06-26T00:58:08;101071.00;;;21.70;100.00
63808;BME280;49961;43.970;22.868;2023-06-26T00:59:09;101081.53;;;21.70;100.00
63808;BME280;49961;43.970;22.868;2023-06-26T01:00:10;101073.56;;;21.68;100.00
63808;BME280;49961;43.970;22.868;2023-06-26T01:01:10;101065.78;;;21.63;100.00
63808;BME280;49961;43.970;22.868;2023-06-26T01:02:16;101071.44;;;21.63;100.00
63808;BME280;49961;43.970;22.868;2023-06-26T01:03:22;101069.09;;;21.62;100.00
63808;BME280;49961;43.970;22.868;2023-06-26T01:04:22;101015.34;;;21.20;100.00
63808;BME280;49961;43.970;22.868;2023-06-26T01:05:28;100977.47;;;21.01;100.00
63808;BME280;49961;43.970;22.868;2023-06-26T01:06:29;101071.38;;;21.58;100.00
63808;BME280;49961;43.970;22.868;2023-06-26T01:07:32;101069.06;;;21.56;100.00
63808;BME280;49961;43.970;22.868;2023-06-26T01:08:36;101067.50;;;21.55;100.00
63808;BME280;49961;43.970;22.868;2023-06-26T01:09:36;101063.13;;;21.54;100.00
63808;BME280;49961;43.970;22.868;2023-06-26T01:10:37;101029.84;;;21.33;100.00
63808;BME280;49961;43.970;22.868;2023-06-26T01:11:37;101063.91;;;21.55;100.00
63808;BME280;49961;43.970;22.868;2023-06-26T01:12:38;101061.84;;;21.55;100.00
63808;BME280;49961;43.970;22.868;2023-06-26T01:13:41;101085.19;;;21.56;100.00
63808;BME280;49961;43.970;22.868;2023-06-26T01:14:42;101069.06;;;21.56;100.00
63808;BME280;49961;43.970;22.868;2023-06-26T01:15:42;101062.91;;;21.58;100.00
63808;BME280;49961;43.970;22.868;2023-06-26T01:16:43;101058.28;;;21.55;100.00
63808;BME280;49961;43.970;22.868;2023-06-26T01:17:47;101070.59;;;21.57;100.00
63808;BME280;49961;43.970;22.868;2023-06-26T01:18:48;101079.81;;;21.58;100.00
63808;BME280;49961;43.970;22.868;2023-06-26T01:19:49;101061.59;;;21.53;100.00
63808;BME280;49961;43.970;22.868;2023-06-26T01:20:50;101056.16;;;21.50;100.00
63808;BME280;49961;43.970;22.868;2023-06-26T01:21:56;101064.41;;;21.53;100.00
63808;BME280;49961;43.970;22.868;2023-06-26T01:24:09;101068.28;;;21.56;100.00
63808;BME280;49961;43.970;22.868;2023-06-26T01:25:21;101057.22;;;21.52;100.00
63808;BME280;49961;43.970;22.868;2023-06-26T01:26:26;101065.94;;;21.54;100.00
63808;BME280;49961;43.970;22.868;2023-06-26T01:27:30;101050.75;;;21.46;100.00
63808;BME280;49961;43.970;22.868;2023-06-26T01:28:33;100985.50;;;21.08;100.00
63808;BME280;49961;43.970;22.868;2023-06-26T01:29:35;101059.03;;;21.55;100.00
63808;BME280;49961;43.970;22.868;2023-06-26T01:30:39;101069.34;;;21.58;100.00
63808;BME280;49961;43.970;22.868;2023-06-26T01:31:40;101037.88;;;21.40;100.00
63808;BME280;49961;43.970;22.868;2023-06-26T01:32:42;101064.97;;;21.57;100.00
63808;BME280;49961;43.970;22.868;2023-06-26T01:33:43;101044.41;;;21.51;100.00
63808;BME280;49961;43.970;22.868;2023-06-26T01:34:45;101051.28;;;21.50;100.00
63808;BME280;49961;43.970;22.868;2023-06-26T01:35:46;101050.78;;;21.52;100.00
63808;BME280;49961;43.970;22.868;2023-06-26T01:36:46;100950.66;;;20.85;100.00
63808;BME280;49961;43.970;22.868;2023-06-26T01:37:47;101058.50;;;21.51;100.00
63808;BME280;49961;43.970;22.868;2023-06-26T01:38:47;101066.25;;;21.56;100.00
63808;BME280;49961;43.970;22.868;2023-06-26T01:39:48;101060.09;;;21.58;100.00
63808;BME280;49961;43.970;22.868;2023-06-26T01:40:49;100946.78;;;20.83;100.00
63808;BME280;49961;43.970;22.868;2023-06-26T01:41:50;101062.38;;;21.54;100.00
63808;BME280;49961;43.970;22.868;2023-06-26T01:42:51;101055.94;;;21.53;100.00
63808;BME280;49961;43.970;22.868;2023-06-26T01:44:17;101060.81;;;21.53;100.00
63808;BME280;49961;43.970;22.868;2023-06-26T01:45:24;101060.59;;;21.56;100.00
63808;BME280;49961;43.970;22.868;2023-06-26T01:46:39;101060.59;;;21.56;100.00
63808;BME280;49961;43.970;22.868;2023-06-26T01:47:44;101059.81;;;21.56;100.00
63808;BME280;49961;43.970;22.868;2023-06-26T01:50:07;101074.41;;;21.54;100.00
63808;BME280;49961;43.970;22.868;2023-06-26T01:51:10;101067.50;;;21.55;100.00
63808;BME280;49961;43.970;22.868;2023-06-26T01:53:36;101007.88;;;21.17;100.00
63808;BME280;49961;43.970;22.868;2023-06-26T01:54:45;101022.59;;;21.26;100.00
63808;BME280;49961;43.970;22.868;2023-06-26T01:56:00;101064.41;;;21.53;100.00
63808;BME280;49961;43.970;22.868;2023-06-26T01:57:04;101062.88;;;21.52;100.00
63808;BME280;49961;43.970;22.868;2023-06-26T01:58:06;100991.34;;;21.04;100.00
63808;BME280;49961;43.970;22.868;2023-06-26T01:59:07;101067.22;;;21.53;100.00
63808;BME280;49961;43.970;22.868;2023-06-26T02:00:09;100971.97;;;20.92;100.00
63808;BME280;49961;43.970;22.868;2023-06-26T02:01:11;101067.44;;;21.50;100.00
63808;BME280;49961;43.970;22.868;2023-06-26T02:02:12;101066.19;;;21.51;100.00
63808;BME280;49961;43.970;22.868;2023-06-26T02:03:12;101064.91;;;21.52;100.00
63808;BME280;49961;43.970;22.868;2023-06-26T02:04:13;101076.19;;;21.52;100.00
63808;BME280;49961;43.970;22.868;2023-06-26T02:05:14;101042.59;;;21.28;100.00
63808;BME280;49961;43.970;22.868;2023-06-26T02:06:14;100988.13;;;20.91;100.00
63808;BME280;49961;43.970;22.868;2023-06-26T02:07:15;101070.75;;;21.48;100.00
63808;BME280;49961;43.970;22.868;2023-06-26T02:08:15;101063.84;;;21.49;100.00
63808;BME280;49961;43.970;22.868;2023-06-26T02:09:16;101073.84;;;21.50;100.00
63808;BME280;49961;43.970;22.868;2023-06-26T02:10:17;101072.59;;;21.51;100.00
63808;BME280;49961;43.970;22.868;2023-06-26T02:11:17;101073.34;;;21.52;100.00
63808;BME280;49961;43.970;22.868;2023-06-26T02:12:18;101069.00;;;21.51;100.00
63808;BME280;49961;43.970;22.868;2023-06-26T02:13:18;101064.41;;;21.53;100.00
63808;BME280;49961;43.970;22.868;2023-06-26T02:14:19;101058.44;;;21.46;100.00
63808;BME280;49961;43.970;22.868;2023-06-26T02:15:19;101069.50;;;21.49;100.00
63808;BME280;49961;43.970;22.868;2023-06-26T02:16:19;101064.34;;;21.48;100.00
63808;BME280;49961;43.970;22.868;2023-06-26T02:17:20;101074.91;;;21.53;100.00
63808;BME280;49961;43.970;22.868;2023-06-26T02:18:20;101071.53;;;21.49;100.00
63808;BME280;49961;43.970;22.868;2023-06-26T02:19:22;101067.13;;;21.42;100.00
63808;BME280;49961;43.970;22.868;2023-06-26T02:20:23;101068.94;;;21.45;100.00
63808;BME280;49961;43.970;22.868;2023-06-26T02:21:23;101072.53;;;21.46;100.00
63808;BME280;49961;43.970;22.868;2023-06-26T02:22:23;101075.34;;;21.46;100.00
63808;BME280;49961;43.970;22.868;2023-06-26T02:23:24;101066.88;;;21.46;100.00
63808;BME280;49961;43.970;22.868;2023-06-26T02:24:24;101066.63;;;21.44;100.00
63808;BME280;49961;43.970;22.868;2023-06-26T02:25:25;101070.69;;;21.43;100.00
63808;BME280;49961;43.970;22.868;2023-06-26T02:26:25;101078.88;;;21.41;100.00
63808;BME280;49961;43.970;22.868;2023-06-26T02:27:26;101076.06;;;21.41;100.00
63808;BME280;49961;43.970;22.868;2023-06-26T02:28:26;101071.91;;;21.36;100.00
63808;BME280;49961;43.970;22.868;2023-06-26T02:29:27;101044.44;;;21.31;100.00
63808;BME280;49961;43.970;22.868;2023-06-26T02:30:27;101064.00;;;21.40;100.00
63808;BME280;49961;43.970;22.868;2023-06-26T02:31:27;101062.22;;;21.43;100.00
63808;BME280;49961;43.970;22.868;2023-06-26T02:32:28;101064.22;;;21.37;100.00
63808;BME280;49961;43.970;22.868;2023-06-26T02:33:28;101077.03;;;21.38;100.00
63808;BME280;49961;43.970;22.868;2023-06-26T02:34:29;101067.81;;;21.37;100.00
63808;BME280;49961;43.970;22.868;2023-06-26T02:35:30;101072.69;;;21.37;100.00
63808;BME280;49961;43.970;22.868;2023-06-26T02:36:33;101068.09;;;21.39;100.00
63808;BME280;49961;43.970;22.868;2023-06-26T02:37:33;101047.25;;;21.31;100.00
63808;BME280;49961;43.970;22.868;2023-06-26T02:38:34;101066.63;;;21.44;100.00
63808;BME280;49961;43.970;22.868;2023-06-26T02:39:34;100951.50;;;20.71;100.00
63808;BME280;49961;43.970;22.868;2023-06-26T02:40:35;101064.56;;;21.44;100.00
63808;BME280;49961;43.970;22.868;2023-06-26T02:41:35;101064.00;;;21.40;100.00
63808;BME280;49961;43.970;22.868;2023-06-26T02:42:35;101060.56;;;21.31;100.00
63808;BME280;49961;43.970;22.868;2023-06-26T02:43:36;101065.44;;;21.30;100.00
63808;BME280;49961;43.970;22.868;2023-06-26T02:44:36;101066.50;;;21.33;100.00
63808;BME280;49961;43.970;22.868;2023-06-26T02:45:37;101074.19;;;21.32;100.00
63808;BME280;49961;43.970;22.868;2023-06-26T02:46:38;101060.13;;;21.38;100.00
63808;BME280;49961;43.970;22.868;2023-06-26T02:47:38;101062.69;;;21.36;100.00
63808;BME280;49961;43.970;22.868;2023-06-26T02:48:39;101055.41;;;21.29;100.00
63808;BME280;49961;43.970;22.868;2023-06-26T02:49:40;101053.16;;;21.33;100.00
63808;BME280;49961;43.970;22.868;2023-06-26T02:50:40;101061.69;;;21.39;100.00
63808;BME280;49961;43.970;22.868;2023-06-26T02:51:40;101062.22;;;21.43;100.00
63808;BME280;49961;43.970;22.868;2023-06-26T02:52:41;101065.34;;;21.45;100.00
63808;BME280;49961;43.970;22.868;2023-06-26T02:53:41;101066.88;;;21.46;100.00
63808;BME280;49961;43.970;22.868;2023-06-26T02:54:42;101063.59;;;21.47;100.00
63808;BME280;49961;43.970;22.868;2023-06-26T02:55:42;101060.75;;;21.47;100.00
63808;BME280;49961;43.970;22.868;2023-06-26T02:56:43;101039.03;;;21.28;100.00
63808;BME280;49961;43.970;22.868;2023-06-26T02:57:43;101066.97;;;21.51;100.00
63808;BME280;49961;43.970;22.868;2023-06-26T02:58:43;101070.28;;;21.50;100.00
63808;BME280;49961;43.970;22.868;2023-06-26T02:59:44;101071.81;;;21.51;100.00
63808;BME280;49961;43.970;22.868;2023-06-26T03:00:44;101073.66;;;21.54;100.00
63808;BME280;49961;43.970;22.868;2023-06-26T03:01:45;101070.84;;;21.54;100.00
63808;BME280;49961;43.970;22.868;2023-06-26T03:02:45;101070.84;;;21.54;100.00
63808;BME280;49961;43.970;22.868;2023-06-26T03:03:46;101026.56;;;21.14;100.00
63808;BME280;49961;43.970;22.868;2023-06-26T03:04:47;101070.84;;;21.54;100.00
63808;BME280;49961;43.970;22.868;2023-06-26T03:05:47;101069.34;;;21.58;100.00
63808;BME280;49961;43.970;22.868;2023-06-26T03:06:48;101076.50;;;21.59;100.00
63808;BME280;49961;43.970;22.868;2023-06-26T03:07:48;101075.25;;;21.60;100.00
63808;BME280;49961;43.970;22.868;2023-06-26T03:08:48;101066.50;;;21.58;100.00
63808;BME280;49961;43.970;22.868;2023-06-26T03:09:49;101080.16;;;21.65;100.00
63808;BME280;49961;43.970;22.868;2023-06-26T03:10:49;101081.44;;;21.64;100.00
63808;BME280;49961;43.970;22.868;2023-06-26T03:11:49;101067.50;;;21.55;100.00
63808;BME280;49961;43.970;22.868;2023-06-26T03:12:50;101074.75;;;21.62;100.00
63808;BME280;49961;43.970;22.868;2023-06-26T03:13:50;101070.66;;;21.63;100.00
63808;BME280;49961;43.970;22.868;2023-06-26T03:14:51;100982.41;;;21.06;100.00
63808;BME280;49961;43.970;22.868;2023-06-26T03:15:51;101081.81;;;21.72;100.00
63808;BME280;49961;43.970;22.868;2023-06-26T03:16:52;100973.19;;;21.05;100.00
63808;BME280;49961;43.970;22.868;2023-06-26T03:17:53;101059.66;;;21.65;100.00
63808;BME280;49961;43.970;22.868;2023-06-26T03:18:53;101079.53;;;21.76;100.00
63808;BME280;49961;43.970;22.868;2023-06-26T03:19:53;101076.97;;;21.78;100.00
63808;BME280;49961;43.970;22.868;2023-06-26T03:20:55;101080.09;;;21.80;100.00
63808;BME280;49961;43.970;22.868;2023-06-26T03:21:56;101084.22;;;21.84;100.00
63808;BME280;49961;43.970;22.868;2023-06-26T03:22:56;101077.53;;;21.82;100.00
63808;BME280;49961;43.970;22.868;2023-06-26T03:23:56;101076.75;;;21.81;100.00
63808;BME280;49961;43.970;22.868;2023-06-26T03:24:57;101073.19;;;21.81;100.00
63808;BME280;49961;43.970;22.868;2023-06-26T03:25:57;101081.69;;;21.86;100.00
63808;BME280;49961;43.970;22.868;2023-06-26T03:26:58;101083.28;;;21.93;100.00
63808;BME280;49961;43.970;22.868;2023-06-26T03:27:58;101089.00;;;21.98;100.00
63808;BME280;49961;43.970;22.868;2023-06-26T03:28:58;101092.31;;;21.97;100.00
63808;BME280;49961;43.970;22.868;2023-06-26T03:29:59;101081.19;;;21.88;100.00
63808;BME280;49961;43.970;22.868;2023-06-26T03:31:00;101081.50;;;21.95;100.00
63808;BME280;49961;43.970;22.868;2023-06-26T03:32:00;101089.22;;;21.95;100.00
63808;BME280;49961;43.970;22.868;2023-06-26T03:33:00;101075.53;;;21.88;100.00
63808;BME280;49961;43.970;22.868;2023-06-26T03:34:01;101081.19;;;21.88;100.00
63808;BME280;49961;43.970;22.868;2023-06-26T03:35:01;101091.25;;;21.94;100.00
63808;BME280;49961;43.970;22.868;2023-06-26T03:36:03;101088.19;;;21.98;100.00
63808;BME280;49961;43.970;22.868;2023-06-26T03:37:04;101089.47;;;21.97;100.00
63808;BME280;49961;43.970;22.868;2023-06-26T03:38:05;101091.50;;;21.96;100.00
63808;BME280;49961;43.970;22.868;2023-06-26T03:39:05;101101.22;;;21.90;100.00
63808;BME280;49961;43.970;22.868;2023-06-26T03:40:06;101094.00;;;21.89;100.00
63808;BME280;49961;43.970;22.868;2023-06-26T03:41:07;100947.28;;;21.01;100.00
63808;BME280;49961;43.970;22.868;2023-06-26T03:42:08;101096.63;;;21.92;100.00
63808;BME280;49961;43.970;22.868;2023-06-26T03:43:08;101093.53;;;21.90;100.00
63808;BME280;49961;43.970;22.868;2023-06-26T03:44:09;101102.53;;;21.94;100.00
63808;BME280;49961;43.970;22.868;2023-06-26T03:45:09;101099.97;;;21.96;100.00
63808;BME280;49961;43.970;22.868;2023-06-26T03:46:09;101088.19;;;21.98;100.00
63808;BME280;49961;43.970;22.868;2023-06-26T03:47:10;101100.03;;;22.02;100.00
63808;BME280;49961;43.970;22.868;2023-06-26T03:48:10;101104.69;;;22.05;100.00
63808;BME280;49961;43.970;22.868;2023-06-26T03:49:11;101099.06;;;22.05;100.00
63808;BME280;49961;43.970;22.868;2023-06-26T03:50:11;101091.59;;;22.02;100.00
63808;BME280;49961;43.970;22.868;2023-06-26T03:51:11;101102.41;;;22.09;100.00
63808;BME280;49961;43.970;22.868;2023-06-26T03:52:12;101102.97;;;22.13;100.00
63808;BME280;49961;43.970;22.868;2023-06-26T03:53:12;101100.69;;;22.17;100.00
63808;BME280;49961;43.970;22.868;2023-06-26T03:54:13;101101.47;;;22.17;100.00
63808;BME280;49961;43.970;22.868;2023-06-26T03:55:13;101084.47;;;22.12;100.00
63808;BME280;49961;43.970;22.868;2023-06-26T03:56:14;101084.75;;;22.14;100.00
63808;BME280;49961;43.970;22.868;2023-06-26T03:57:14;101079.81;;;22.09;100.00
63808;BME280;49961;43.970;22.868;2023-06-26T03:58:14;101092.53;;;22.24;100.00
63808;BME280;49961;43.970;22.868;2023-06-26T03:59:15;101032.16;;;21.85;100.00
63808;BME280;49961;43.970;22.868;2023-06-26T04:00:16;101087.94;;;22.27;100.00
63808;BME280;49961;43.970;22.868;2023-06-26T04:01:16;101093.91;;;22.34;100.00
63808;BME280;49961;43.970;22.868;2023-06-26T04:02:16;101098.53;;;22.37;100.00
63808;BME280;49961;43.970;22.868;2023-06-26T04:03:17;101096.00;;;22.39;100.00
63808;BME280;49961;43.970;22.868;2023-06-26T04:04:17;101096.53;;;22.43;100.00
63808;BME280;49961;43.970;22.868;2023-06-26T04:05:18;101103.53;;;22.48;100.00
63808;BME280;49961;43.970;22.868;2023-06-26T04:06:18;101103.28;;;22.51;100.00
63808;BME280;49961;43.970;22.868;2023-06-26T04:07:19;101101.28;;;22.57;100.00
63808;BME280;49961;43.970;22.868;2023-06-26T04:08:19;101099.22;;;22.58;100.00
63808;BME280;49961;43.970;22.868;2023-06-26T04:09:20;101057.63;;;22.27;100.00
63808;BME280;49961;43.970;22.868;2023-06-26T04:10:21;101099.25;;;22.63;100.00
63808;BME280;49961;43.970;22.868;2023-06-26T04:11:21;101096.44;;;22.63;100.00
63808;BME280;49961;43.970;22.868;2023-06-26T04:12:22;101093.59;;;22.63;100.00
63808;BME280;49961;43.970;22.868;2023-06-26T04:13:22;101017.06;;;22.19;100.00
63808;BME280;49961;43.970;22.868;2023-06-26T04:14:22;101012.69;;;22.18;100.00
63808;BME280;49961;43.970;22.868;2023-06-26T04:15:23;101095.72;;;22.74;100.00
63808;BME280;49961;43.970;22.868;2023-06-26T04:16:23;101068.16;;;22.58;100.00
63808;BME280;49961;43.970;22.868;2023-06-26T04:17:27;101097.56;;;22.77;100.00
63808;BME280;49961;43.970;22.868;2023-06-26T04:18:27;101092.91;;;22.74;100.00
63808;BME280;49961;43.970;22.868;2023-06-26T04:19:27;101096.28;;;22.78;100.00
63808;BME280;49961;43.970;22.868;2023-06-26T04:20:28;101103.72;;;22.75;100.00
63808;BME280;49961;43.970;22.868;2023-06-26T04:21:28;101101.94;;;22.78;100.00
63808;BME280;49961;43.970;22.868;2023-06-26T04:22:28;101105.56;;;22.84;100.00
63808;BME280;49961;43.970;22.868;2023-06-26T04:23:29;101096.06;;;22.87;100.00
63808;BME280;49961;43.970;22.868;2023-06-26T04:24:31;101097.13;;;22.89;100.00
63808;BME280;49961;43.970;22.868;2023-06-26T04:25:31;100961.28;;;22.09;100.00
63808;BME280;49961;43.970;22.868;2023-06-26T04:26:31;101100.47;;;22.93;100.00
63808;BME280;49961;43.970;22.868;2023-06-26T04:27:32;101104.56;;;22.92;100.00
63808;BME280;49961;43.970;22.868;2023-06-26T04:28:33;101078.03;;;22.79;100.00
63808;BME280;49961;43.970;22.868;2023-06-26T04:29:34;101099.41;;;22.91;100.00
63808;BME280;49961;43.970;22.868;2023-06-26T04:30:34;101103.28;;;22.93;100.00
63808;BME280;49961;43.970;22.868;2023-06-26T04:31:35;101103.81;;;22.97;100.00
63808;BME280;49961;43.970;22.868;2023-06-26T04:32:35;101103.59;;;23.01;100.00
63808;BME280;49961;43.970;22.868;2023-06-26T04:33:36;101100.00;;;23.00;100.00
63808;BME280;49961;43.970;22.868;2023-06-26T04:34:37;101101.28;;;23.05;100.00
63808;BME280;49961;43.970;22.868;2023-06-26T04:35:41;101095.38;;;23.03;100.00
63808;BME280;49961;43.970;22.868;2023-06-26T04:36:41;101060.38;;;22.95;100.00
63808;BME280;49961;43.970;22.868;2023-06-26T04:37:46;101085.91;;;23.11;100.00
63808;BME280;49961;43.970;22.868;2023-06-26T04:38:47;101082.25;;;23.00;100.00
63808;BME280;49961;43.970;22.868;2023-06-26T04:39:50;101095.41;;;23.08;100.00
63808;BME280;49961;43.970;22.868;2023-06-26T04:40:51;101090.25;;;23.07;100.00
63808;BME280;49961;43.970;22.868;2023-06-26T04:41:51;101084.09;;;23.08;100.00
63808;BME280;49961;43.970;22.868;2023-06-26T04:43:53;101095.50;;;23.25;100.00
63808;BME280;49961;43.970;22.868;2023-06-26T04:44:53;101093.47;;;23.31;100.00
63808;BME280;49961;43.970;22.868;2023-06-26T04:45:54;101097.56;;;23.30;100.00
63808;BME280;49961;43.970;22.868;2023-06-26T04:46:54;101090.63;;;23.31;100.00
63808;BME280;49961;43.970;22.868;2023-06-26T04:47:54;101091.94;;;23.35;100.00
63808;BME280;49961;43.970;22.868;2023-06-26T04:48:56;101080.63;;;23.35;100.00
63808;BME280;49961;43.970;22.868;2023-06-26T04:49:58;101086.81;;;23.39;100.00
63808;BME280;49961;43.970;22.868;2023-06-26T04:50:58;101086.28;;;23.41;100.00
63808;BME280;49961;43.970;22.868;2023-06-26T04:51:59;101082.72;;;23.40;100.00
63808;BME280;49961;43.970;22.868;2023-06-26T04:53:00;101081.69;;;23.38;100.00
63808;BME280;49961;43.970;22.868;2023-06-26T04:54:01;101057.94;;;23.24;100.00
63808;BME280;49961;43.970;22.868;2023-06-26T04:55:01;101088.13;;;23.49;100.00
63808;BME280;49961;43.970;22.868;2023-06-26T04:56:01;101074.72;;;23.44;100.00
63808;BME280;49961;43.970;22.868;2023-06-26T04:57:02;101075.25;;;23.48;100.00
63808;BME280;49961;43.970;22.868;2023-06-26T04:58:02;101081.16;;;23.50;100.00
63808;BME280;49961;43.970;22.868;2023-06-26T04:59:03;101087.59;;;23.51;100.00
63808;BME280;49961;43.970;22.868;2023-06-26T05:00:04;101075.50;;;23.39;100.00
63808;BME280;49961;43.970;22.868;2023-06-26T05:01:10;101081.44;;;23.58;100.00
63808;BME280;49961;43.970;22.868;2023-06-26T05:02:13;101085.34;;;23.66;100.00
63808;BME280;49961;43.970;22.868;2023-06-26T05:03:18;101089.97;;;23.74;100.00
63808;BME280;49961;43.970;22.868;2023-06-26T05:04:18;101087.16;;;23.80;100.00
63808;BME280;49961;43.970;22.868;2023-06-26T05:05:19;101091.03;;;23.82;100.00
63808;BME280;49961;43.970;22.868;2023-06-26T05:06:19;101090.00;;;23.80;100.00
63808;BME280;49961;43.970;22.868;2023-06-26T05:07:20;101088.19;;;23.82;100.00
63808;BME280;49961;43.970;22.868;2023-06-26T05:08:24;101093.59;;;23.86;100.00
63808;BME280;49961;43.970;22.868;2023-06-26T05:09:26;101083.28;;;23.83;100.00
63808;BME280;49961;43.970;22.868;2023-06-26T05:10:27;101088.19;;;23.82;100.00
63808;BME280;49961;43.970;22.868;2023-06-26T05:11:27;101090.25;;;23.87;100.00
63808;BME280;49961;43.970;22.868;2023-06-26T05:12:27;101087.72;;;23.89;100.00
63808;BME280;49961;43.970;22.868;2023-06-26T05:13:28;101090.25;;;23.87;100.00
63808;BME280;49961;43.970;22.868;2023-06-26T05:14:28;101086.97;;;23.89;100.00
63808;BME280;49961;43.970;22.868;2023-06-26T05:15:29;101078.94;;;23.87;100.00
63808;BME280;49961;43.970;22.868;2023-06-26T05:16:29;101083.81;;;23.87;100.00